QTR14 EDDM-EDDF
Flight info
| Callsign | QTR14 |
|---|---|
| Flight time | 0h 37m |
| Altitude | 24000 |
| Route | GIVMI6Q/08L GIVMI Y101 ERNAS T161 DEBHI DEBHI1B |
| Aircraft | A35K/H-SDE2E3GHIJ3J4J5LM1ORWXY/LB1D1 |
Departure
| Time | 2026-05-04 16:33 |
|---|---|
| Airport | Munich Airport (EDDM) |
Arrival
| Time | 2026-05-04 17:10 |
|---|---|
| Airport | Frankfurt Main Airport (EDDF) |
| Time | Latitude | Longitude | Altitude | Speed | Heading |
|---|---|---|---|---|---|
| 2026-05-04 15:43 | 48.35469 | 11.79738 | 1478 ft | 0 kts | 83° |
| 2026-05-04 16:20 | 48.35462 | 11.79651 | 1480 ft | 4 kts | 83° |
| 2026-05-04 16:20 | 48.35445 | 11.79593 | 1476 ft | 4 kts | 1° |
| 2026-05-04 16:21 | 48.35417 | 11.79597 | 1476 ft | 0 kts | 353° |
| 2026-05-04 16:24 | 48.35437 | 11.79593 | 1480 ft | 3 kts | 344° |
| 2026-05-04 16:25 | 48.35469 | 11.79501 | 1482 ft | 7 kts | 296° |
| 2026-05-04 16:26 | 48.35776 | 11.79399 | 1488 ft | 14 kts | 354° |
| 2026-05-04 16:26 | 48.35899 | 11.79369 | 1476 ft | 5 kts | 336° |
| 2026-05-04 16:27 | 48.35998 | 11.79335 | 1479 ft | 10 kts | 352° |
| 2026-05-04 16:28 | 48.36070 | 11.79025 | 1484 ft | 15 kts | 263° |
| 2026-05-04 16:28 | 48.36026 | 11.78433 | 1476 ft | 22 kts | 264° |
| 2026-05-04 16:29 | 48.35943 | 11.77366 | 1482 ft | 27 kts | 263° |
| 2026-05-04 16:30 | 48.35916 | 11.76967 | 1491 ft | 16 kts | 274° |
| 2026-05-04 16:31 | 48.36104 | 11.76805 | 1480 ft | 16 kts | 353° |
| 2026-05-04 16:31 | 48.36307 | 11.77197 | 1480 ft | 35 kts | 83° |
| 2026-05-04 16:32 | 48.36622 | 11.81417 | 2053 ft | 192 kts | 83° |
| 2026-05-04 16:33 | 48.37561 | 11.85208 | 3683 ft | 199 kts | 40° |
| 2026-05-04 16:33 | 48.40123 | 11.85938 | 5366 ft | 190 kts | 353° |
| 2026-05-04 16:34 | 48.42662 | 11.84642 | 6704 ft | 207 kts | 324° |
| 2026-05-04 16:34 | 48.43801 | 11.83076 | 6912 ft | 239 kts | 311° |
| 2026-05-04 16:35 | 48.46991 | 11.77514 | 8306 ft | 280 kts | 308° |
| 2026-05-04 16:35 | 48.50941 | 11.70548 | 10874 ft | 317 kts | 308° |
| 2026-05-04 16:36 | 48.52429 | 11.67913 | 11290 ft | 342 kts | 308° |
| 2026-05-04 16:36 | 48.55655 | 11.62211 | 12769 ft | 367 kts | 308° |
| 2026-05-04 16:37 | 48.59028 | 11.56237 | 14528 ft | 379 kts | 308° |
| 2026-05-04 16:37 | 48.60746 | 11.53189 | 15415 ft | 383 kts | 307° |
| 2026-05-04 16:37 | 48.64233 | 11.46986 | 17185 ft | 391 kts | 307° |
| 2026-05-04 16:38 | 48.67789 | 11.40642 | 18614 ft | 398 kts | 307° |
| 2026-05-04 16:39 | 48.74019 | 11.32193 | 18913 ft | 407 kts | 323° |
| 2026-05-04 16:39 | 48.78768 | 11.27495 | 18917 ft | 408 kts | 324° |
| 2026-05-04 16:40 | 48.83514 | 11.22799 | 18937 ft | 406 kts | 320° |
| 2026-05-04 16:40 | 48.87839 | 11.17327 | 18936 ft | 404 kts | 315° |
| 2026-05-04 16:41 | 48.91996 | 11.11579 | 18940 ft | 404 kts | 314° |
| 2026-05-04 16:41 | 48.98170 | 11.02871 | 18956 ft | 403 kts | 314° |
| 2026-05-04 16:42 | 49.04314 | 10.94229 | 18972 ft | 400 kts | 314° |
| 2026-05-04 16:43 | 49.08373 | 10.88518 | 18968 ft | 400 kts | 314° |
| 2026-05-04 16:43 | 49.12459 | 10.82761 | 18983 ft | 400 kts | 314° |
| 2026-05-04 16:43 | 49.14495 | 10.79876 | 18984 ft | 400 kts | 314° |
| 2026-05-04 16:44 | 49.22540 | 10.68166 | 18989 ft | 398 kts | 310° |
| 2026-05-04 16:45 | 49.26375 | 10.62026 | 18985 ft | 400 kts | 310° |
| 2026-05-04 16:46 | 49.32167 | 10.52834 | 18980 ft | 400 kts | 310° |
| 2026-05-04 16:46 | 49.35979 | 10.46641 | 18980 ft | 398 kts | 306° |
| 2026-05-04 16:47 | 49.39225 | 10.39798 | 18953 ft | 396 kts | 302° |
| 2026-05-04 16:47 | 49.42375 | 10.32868 | 18952 ft | 396 kts | 302° |
| 2026-05-04 16:48 | 49.47116 | 10.22437 | 18967 ft | 397 kts | 301° |
| 2026-05-04 16:48 | 49.48696 | 10.18952 | 18968 ft | 397 kts | 301° |
| 2026-05-04 16:49 | 49.51858 | 10.11971 | 18969 ft | 397 kts | 301° |
| 2026-05-04 16:49 | 49.55060 | 10.04886 | 18652 ft | 407 kts | 301° |
| 2026-05-04 16:50 | 49.58180 | 9.97972 | 18173 ft | 379 kts | 301° |
| 2026-05-04 16:50 | 49.61092 | 9.91502 | 17650 ft | 360 kts | 301° |
| 2026-05-04 16:51 | 49.63926 | 9.85157 | 17128 ft | 358 kts | 301° |
| 2026-05-04 16:51 | 49.65339 | 9.81994 | 16868 ft | 357 kts | 301° |
| 2026-05-04 16:51 | 49.68148 | 9.75698 | 16357 ft | 355 kts | 301° |
| 2026-05-04 16:52 | 49.70940 | 9.69432 | 15845 ft | 353 kts | 301° |
| 2026-05-04 16:52 | 49.72309 | 9.66352 | 15609 ft | 352 kts | 301° |
| 2026-05-04 16:53 | 49.75072 | 9.60138 | 15126 ft | 350 kts | 301° |
| 2026-05-04 16:53 | 49.79170 | 9.50869 | 14199 ft | 345 kts | 301° |
| 2026-05-04 16:54 | 49.80521 | 9.47810 | 13833 ft | 343 kts | 301° |
| 2026-05-04 16:55 | 49.85835 | 9.35591 | 12279 ft | 338 kts | 296° |
| 2026-05-04 16:55 | 49.87400 | 9.28900 | 11523 ft | 322 kts | 283° |
| 2026-05-04 16:56 | 49.88623 | 9.22415 | 10978 ft | 301 kts | 283° |
| 2026-05-04 16:56 | 49.90345 | 9.13335 | 10332 ft | 291 kts | 282° |
| 2026-05-04 16:57 | 49.90914 | 9.10330 | 10111 ft | 290 kts | 282° |
| 2026-05-04 16:57 | 49.92038 | 9.04406 | 9592 ft | 283 kts | 282° |
| 2026-05-04 16:58 | 49.93757 | 8.95693 | 8803 ft | 284 kts | 289° |
| 2026-05-04 16:58 | 49.94907 | 8.93182 | 8632 ft | 291 kts | 314° |
| 2026-05-04 16:59 | 49.98705 | 8.91318 | 8360 ft | 288 kts | 359° |
| 2026-05-04 17:00 | 50.04386 | 8.97448 | 7339 ft | 258 kts | 73° |
| 2026-05-04 17:00 | 50.06169 | 9.05292 | 6613 ft | 255 kts | 73° |
| 2026-05-04 17:01 | 50.07369 | 9.10456 | 6325 ft | 254 kts | 73° |
| 2026-05-04 17:01 | 50.08561 | 9.15605 | 6111 ft | 253 kts | 73° |
| 2026-05-04 17:02 | 50.10568 | 9.19912 | 6011 ft | 253 kts | 26° |
| 2026-05-04 17:02 | 50.13885 | 9.19789 | 6008 ft | 244 kts | 325° |
| 2026-05-04 17:03 | 50.15046 | 9.17940 | 6019 ft | 239 kts | 295° |
| 2026-05-04 17:03 | 50.15691 | 9.15562 | 6015 ft | 239 kts | 285° |
| 2026-05-04 17:03 | 50.16710 | 9.10615 | 6013 ft | 240 kts | 284° |
| 2026-05-04 17:04 | 50.17703 | 9.05644 | 6009 ft | 240 kts | 283° |
| 2026-05-04 17:04 | 50.17255 | 9.00855 | 6007 ft | 226 kts | 227° |
| 2026-05-04 17:05 | 50.14817 | 8.97810 | 6006 ft | 226 kts | 214° |
| 2026-05-04 17:05 | 50.12570 | 8.94454 | 5741 ft | 229 kts | 241° |
| 2026-05-04 17:06 | 50.11429 | 8.89845 | 5249 ft | 232 kts | 248° |
| 2026-05-04 17:06 | 50.10876 | 8.87480 | 4855 ft | 233 kts | 248° |
| 2026-05-04 17:07 | 50.09724 | 8.82662 | 3752 ft | 245 kts | 249° |
| 2026-05-04 17:07 | 50.09317 | 8.80971 | 3387 ft | 248 kts | 250° |
| 2026-05-04 17:07 | 50.08525 | 8.77642 | 2889 ft | 245 kts | 252° |
| 2026-05-04 17:07 | 50.07939 | 8.75172 | 2570 ft | 242 kts | 252° |
| 2026-05-04 17:08 | 50.07362 | 8.72745 | 2257 ft | 232 kts | 251° |
| 2026-05-04 17:08 | 50.06357 | 8.68525 | 1707 ft | 185 kts | 251° |
| 2026-05-04 17:08 | 50.05936 | 8.66750 | 1454 ft | 165 kts | 250° |
| 2026-05-04 17:09 | 50.05548 | 8.65127 | 1268 ft | 158 kts | 250° |
| 2026-05-04 17:09 | 50.05169 | 8.63541 | 1055 ft | 150 kts | 252° |
| 2026-05-04 17:09 | 50.04817 | 8.62069 | 815 ft | 142 kts | 253° |
| 2026-05-04 17:10 | 50.04146 | 8.59258 | 499 ft | 140 kts | 250° |
| 2026-05-04 17:10 | 50.03323 | 8.55800 | 359 ft | 36 kts | 245° |
| 2026-05-04 17:11 | 50.03177 | 8.55504 | 359 ft | 25 kts | 218° |
| 2026-05-04 17:11 | 50.03084 | 8.55470 | 358 ft | 9 kts | 136° |
| 2026-05-04 17:11 | 50.03075 | 8.55563 | 357 ft | 4 kts | 76° |
| 2026-05-04 17:12 | 50.03087 | 8.55621 | 354 ft | 7 kts | 71° |
| 2026-05-04 17:12 | 50.03142 | 8.55835 | 361 ft | 14 kts | 68° |
| 2026-05-04 17:13 | 50.03267 | 8.56367 | 361 ft | 21 kts | 70° |
| 2026-05-04 17:14 | 50.03346 | 8.56721 | 362 ft | 13 kts | 88° |
| 2026-05-04 17:14 | 50.03301 | 8.56833 | 366 ft | 7 kts | 107° |
| 2026-05-04 17:14 | 50.03333 | 8.57035 | 365 ft | 13 kts | 70° |
| 2026-05-04 17:15 | 50.03370 | 8.57186 | 365 ft | 17 kts | 69° |
| 2026-05-04 17:15 | 50.03443 | 8.57482 | 369 ft | 14 kts | 69° |
| 2026-05-04 17:16 | 50.03526 | 8.57826 | 368 ft | 19 kts | 75° |
| 2026-05-04 17:16 | 50.03683 | 8.58498 | 371 ft | 25 kts | 69° |
| 2026-05-04 17:17 | 50.03735 | 8.58711 | 374 ft | 11 kts | 69° |
| 2026-05-04 17:17 | 50.03555 | 8.58942 | 370 ft | 8 kts | 180° |
| 2026-05-04 17:18 | 50.03529 | 8.58888 | 369 ft | 8 kts | 273° |
| 2026-05-04 17:18 | 50.03543 | 8.58812 | 372 ft | 0 kts | 291° |